sensor_id;sensor_type;location;lat;lon;timestamp;temperature;humidity
32839;DHT22;19182;41.820;12.808;2022-12-24T00:02:17;9.30;99.90
32839;DHT22;19182;41.820;12.808;2022-12-24T00:04:43;9.30;99.90
32839;DHT22;19182;41.820;12.808;2022-12-24T00:07:08;9.40;99.90
32839;DHT22;19182;41.820;12.808;2022-12-24T00:09:34;9.40;99.90
32839;DHT22;19182;41.820;12.808;2022-12-24T00:12:00;9.30;99.90
32839;DHT22;19182;41.820;12.808;2022-12-24T00:14:26;9.20;99.90
32839;DHT22;19182;41.820;12.808;2022-12-24T00:16:52;9.10;99.90
32839;DHT22;19182;41.820;12.808;2022-12-24T00:19:17;9.20;99.90
32839;DHT22;19182;41.820;12.808;2022-12-24T00:21:43;9.30;99.90
32839;DHT22;19182;41.820;12.808;2022-12-24T00:24:09;9.20;99.90
32839;DHT22;19182;41.820;12.808;2022-12-24T00:26:35;9.30;99.90
32839;DHT22;19182;41.820;12.808;2022-12-24T00:29:01;9.30;99.90
32839;DHT22;19182;41.820;12.808;2022-12-24T00:31:26;9.30;99.90
32839;DHT22;19182;41.820;12.808;2022-12-24T00:33:52;9.30;99.90
32839;DHT22;19182;41.820;12.808;2022-12-24T00:36:18;9.10;99.90
32839;DHT22;19182;41.820;12.808;2022-12-24T00:38:44;9.10;99.90
32839;DHT22;19182;41.820;12.808;2022-12-24T00:41:12;9.00;99.90
32839;DHT22;19182;41.820;12.808;2022-12-24T00:46:24;9.00;99.90
32839;DHT22;19182;41.820;12.808;2022-12-24T00:48:50;9.00;99.90
32839;DHT22;19182;41.820;12.808;2022-12-24T00:51:16;9.00;99.90
32839;DHT22;19182;41.820;12.808;2022-12-24T00:53:42;8.90;99.90
32839;DHT22;19182;41.820;12.808;2022-12-24T00:56:08;9.00;99.90
32839;DHT22;19182;41.820;12.808;2022-12-24T00:58:34;9.00;99.90
32839;DHT22;19182;41.820;12.808;2022-12-24T01:01:00;9.00;99.90
32839;DHT22;19182;41.820;12.808;2022-12-24T01:03:26;8.90;99.90
32839;DHT22;19182;41.820;12.808;2022-12-24T01:06:02;8.90;99.90
32839;DHT22;19182;41.820;12.808;2022-12-24T01:08:28;8.80;99.90
32839;DHT22;19182;41.820;12.808;2022-12-24T01:10:54;8.90;99.90
32839;DHT22;19182;41.820;12.808;2022-12-24T01:13:19;8.90;99.90
32839;DHT22;19182;41.820;12.808;2022-12-24T01:15:45;8.80;99.90
32839;DHT22;19182;41.820;12.808;2022-12-24T01:18:11;8.50;99.90
32839;DHT22;19182;41.820;12.808;2022-12-24T01:20:37;8.60;99.90
32839;DHT22;19182;41.820;12.808;2022-12-24T01:23:02;8.60;99.90
32839;DHT22;19182;41.820;12.808;2022-12-24T01:25:28;8.70;99.90
32839;DHT22;19182;41.820;12.808;2022-12-24T01:27:54;8.70;99.90
32839;DHT22;19182;41.820;12.808;2022-12-24T01:30:20;8.80;99.90
32839;DHT22;19182;41.820;12.808;2022-12-24T01:32:46;8.70;99.90
32839;DHT22;19182;41.820;12.808;2022-12-24T01:35:11;8.70;99.90
32839;DHT22;19182;41.820;12.808;2022-12-24T01:37:38;8.60;99.90
32839;DHT22;19182;41.820;12.808;2022-12-24T01:40:06;8.70;99.90
32839;DHT22;19182;41.820;12.808;2022-12-24T01:42:52;8.70;99.90
32839;DHT22;19182;41.820;12.808;2022-12-24T01:45:45;8.70;99.90
32839;DHT22;19182;41.820;12.808;2022-12-24T01:48:37;8.80;99.90
32839;DHT22;19182;41.820;12.808;2022-12-24T01:53:38;8.70;99.90
32839;DHT22;19182;41.820;12.808;2022-12-24T01:56:07;8.70;99.90
32839;DHT22;19182;41.820;12.808;2022-12-24T01:58:35;8.70;99.90
32839;DHT22;19182;41.820;12.808;2022-12-24T02:01:02;8.70;99.90
32839;DHT22;19182;41.820;12.808;2022-12-24T02:03:28;8.70;99.90
32839;DHT22;19182;41.820;12.808;2022-12-24T02:05:56;8.60;99.90
32839;DHT22;19182;41.820;12.808;2022-12-24T02:08:22;8.70;99.90
32839;DHT22;19182;41.820;12.808;2022-12-24T02:10:49;8.70;99.90
32839;DHT22;19182;41.820;12.808;2022-12-24T02:13:18;8.60;99.90
32839;DHT22;19182;41.820;12.808;2022-12-24T02:18:36;8.80;99.90
32839;DHT22;19182;41.820;12.808;2022-12-24T02:32:03;8.60;99.90
32839;DHT22;19182;41.820;12.808;2022-12-24T02:34:44;8.60;99.90
32839;DHT22;19182;41.820;12.808;2022-12-24T02:37:23;8.60;99.90
32839;DHT22;19182;41.820;12.808;2022-12-24T02:40:14;8.60;99.90
32839;DHT22;19182;41.820;12.808;2022-12-24T02:42:42;8.60;99.90
32839;DHT22;19182;41.820;12.808;2022-12-24T02:45:22;8.60;99.90
32839;DHT22;19182;41.820;12.808;2022-12-24T02:47:51;8.60;99.90
32839;DHT22;19182;41.820;12.808;2022-12-24T02:50:19;8.50;99.90
32839;DHT22;19182;41.820;12.808;2022-12-24T02:52:46;8.60;99.90
32839;DHT22;19182;41.820;12.808;2022-12-24T02:58:01;8.70;99.90
32839;DHT22;19182;41.820;12.808;2022-12-24T03:00:49;8.70;99.90
32839;DHT22;19182;41.820;12.808;2022-12-24T03:03:29;8.70;99.90
32839;DHT22;19182;41.820;12.808;2022-12-24T03:06:12;8.70;99.90
32839;DHT22;19182;41.820;12.808;2022-12-24T03:09:06;8.60;99.90
32839;DHT22;19182;41.820;12.808;2022-12-24T03:11:36;8.60;99.90
32839;DHT22;19182;41.820;12.808;2022-12-24T03:14:04;8.50;99.90
32839;DHT22;19182;41.820;12.808;2022-12-24T03:16:30;8.40;99.90
32839;DHT22;19182;41.820;12.808;2022-12-24T03:18:57;8.40;99.90
32839;DHT22;19182;41.820;12.808;2022-12-24T03:21:33;9.10;99.90
32839;DHT22;19182;41.820;12.808;2022-12-24T03:24:00;8.30;99.90
32839;DHT22;19182;41.820;12.808;2022-12-24T03:26:28;8.40;99.90
32839;DHT22;19182;41.820;12.808;2022-12-24T03:31:21;8.30;99.90
32839;DHT22;19182;41.820;12.808;2022-12-24T03:33:47;8.30;99.90
32839;DHT22;19182;41.820;12.808;2022-12-24T03:36:13;8.40;99.90
32839;DHT22;19182;41.820;12.808;2022-12-24T03:38:39;8.40;99.90
32839;DHT22;19182;41.820;12.808;2022-12-24T03:41:06;8.30;99.90
32839;DHT22;19182;41.820;12.808;2022-12-24T03:43:31;8.40;99.90
32839;DHT22;19182;41.820;12.808;2022-12-24T03:46:02;8.50;99.90
32839;DHT22;19182;41.820;12.808;2022-12-24T03:48:28;8.50;99.90
32839;DHT22;19182;41.820;12.808;2022-12-24T03:50:54;8.50;99.90
32839;DHT22;19182;41.820;12.808;2022-12-24T03:53:20;8.50;99.90
32839;DHT22;19182;41.820;12.808;2022-12-24T03:55:47;8.50;99.90
32839;DHT22;19182;41.820;12.808;2022-12-24T03:58:12;8.50;99.90
32839;DHT22;19182;41.820;12.808;2022-12-24T04:00:38;8.50;99.90
32839;DHT22;19182;41.820;12.808;2022-12-24T04:03:04;8.50;99.90
32839;DHT22;19182;41.820;12.808;2022-12-24T04:05:30;8.60;99.90
32839;DHT22;19182;41.820;12.808;2022-12-24T04:07:55;8.60;99.90
32839;DHT22;19182;41.820;12.808;2022-12-24T04:10:21;8.60;99.90
32839;DHT22;19182;41.820;12.808;2022-12-24T04:12:48;8.70;99.90
32839;DHT22;19182;41.820;12.808;2022-12-24T04:15:14;8.60;99.90
32839;DHT22;19182;41.820;12.808;2022-12-24T04:17:40;8.60;99.90
32839;DHT22;19182;41.820;12.808;2022-12-24T04:20:06;8.60;99.90
32839;DHT22;19182;41.820;12.808;2022-12-24T04:22:33;8.60;99.90
32839;DHT22;19182;41.820;12.808;2022-12-24T04:24:59;8.60;99.90
32839;DHT22;19182;41.820;12.808;2022-12-24T04:27:24;8.60;99.90
32839;DHT22;19182;41.820;12.808;2022-12-24T04:29:50;8.60;99.90
32839;DHT22;19182;41.820;12.808;2022-12-24T04:32:16;8.70;99.90
32839;DHT22;19182;41.820;12.808;2022-12-24T04:34:41;8.70;99.90
32839;DHT22;19182;41.820;12.808;2022-12-24T04:37:07;8.70;99.90
32839;DHT22;19182;41.820;12.808;2022-12-24T04:39:33;8.60;99.90
32839;DHT22;19182;41.820;12.808;2022-12-24T04:41:59;8.50;99.90
32839;DHT22;19182;41.820;12.808;2022-12-24T04:44:24;8.60;99.90
32839;DHT22;19182;41.820;12.808;2022-12-24T04:46:50;8.60;99.90
32839;DHT22;19182;41.820;12.808;2022-12-24T04:49:16;8.60;99.90
32839;DHT22;19182;41.820;12.808;2022-12-24T04:51:43;8.50;99.90
32839;DHT22;19182;41.820;12.808;2022-12-24T04:54:08;8.50;99.90
32839;DHT22;19182;41.820;12.808;2022-12-24T04:56:34;8.70;99.90
32839;DHT22;19182;41.820;12.808;2022-12-24T04:59:00;8.70;99.90
32839;DHT22;19182;41.820;12.808;2022-12-24T05:01:28;8.60;99.90
32839;DHT22;19182;41.820;12.808;2022-12-24T05:03:55;8.90;99.90
32839;DHT22;19182;41.820;12.808;2022-12-24T05:06:24;9.00;99.90
32839;DHT22;19182;41.820;12.808;2022-12-24T05:08:56;9.10;99.90
32839;DHT22;19182;41.820;12.808;2022-12-24T05:11:23;9.00;99.90
32839;DHT22;19182;41.820;12.808;2022-12-24T05:13:49;9.00;99.90
32839;DHT22;19182;41.820;12.808;2022-12-24T05:16:16;8.90;99.90
32839;DHT22;19182;41.820;12.808;2022-12-24T05:18:42;8.90;99.90
32839;DHT22;19182;41.820;12.808;2022-12-24T05:21:10;8.90;99.90
32839;DHT22;19182;41.820;12.808;2022-12-24T05:23:37;9.00;99.90
32839;DHT22;19182;41.820;12.808;2022-12-24T05:29:12;9.10;99.90
32839;DHT22;19182;41.820;12.808;2022-12-24T05:31:39;9.20;99.90
32839;DHT22;19182;41.820;12.808;2022-12-24T05:34:06;9.30;99.90
32839;DHT22;19182;41.820;12.808;2022-12-24T05:36:35;9.40;99.90
32839;DHT22;19182;41.820;12.808;2022-12-24T05:39:02;9.40;99.90
32839;DHT22;19182;41.820;12.808;2022-12-24T05:41:28;9.50;99.90
32839;DHT22;19182;41.820;12.808;2022-12-24T05:43:54;9.50;99.90
32839;DHT22;19182;41.820;12.808;2022-12-24T05:46:21;9.50;99.90
32839;DHT22;19182;41.820;12.808;2022-12-24T05:48:48;9.40;99.90
32839;DHT22;19182;41.820;12.808;2022-12-24T05:51:15;9.60;99.90
32839;DHT22;19182;41.820;12.808;2022-12-24T05:53:44;9.60;99.90
32839;DHT22;19182;41.820;12.808;2022-12-24T05:56:20;9.60;99.90
32839;DHT22;19182;41.820;12.808;2022-12-24T05:58:46;9.50;99.90
32839;DHT22;19182;41.820;12.808;2022-12-24T06:01:12;9.40;99.90
32839;DHT22;19182;41.820;12.808;2022-12-24T06:03:39;9.40;99.90
32839;DHT22;19182;41.820;12.808;2022-12-24T06:06:11;9.40;99.90
32839;DHT22;19182;41.820;12.808;2022-12-24T06:08:41;9.40;99.90
32839;DHT22;19182;41.820;12.808;2022-12-24T06:11:10;9.40;99.90
32839;DHT22;19182;41.820;12.808;2022-12-24T06:13:37;9.50;99.90
32839;DHT22;19182;41.820;12.808;2022-12-24T06:16:05;9.40;99.90
32839;DHT22;19182;41.820;12.808;2022-12-24T06:18:33;9.40;99.90
32839;DHT22;19182;41.820;12.808;2022-12-24T06:20:59;9.50;99.90
32839;DHT22;19182;41.820;12.808;2022-12-24T06:23:27;9.50;99.90
32839;DHT22;19182;41.820;12.808;2022-12-24T06:25:56;9.50;99.90
32839;DHT22;19182;41.820;12.808;2022-12-24T06:28:23;9.50;99.90
32839;DHT22;19182;41.820;12.808;2022-12-24T06:30:49;9.50;99.90
32839;DHT22;19182;41.820;12.808;2022-12-24T06:33:17;9.50;99.90
32839;DHT22;19182;41.820;12.808;2022-12-24T06:35:46;9.50;99.90
32839;DHT22;19182;41.820;12.808;2022-12-24T06:38:14;9.50;99.90
32839;DHT22;19182;41.820;12.808;2022-12-24T06:40:41;9.50;99.90
32839;DHT22;19182;41.820;12.808;2022-12-24T06:43:08;9.50;99.90
32839;DHT22;19182;41.820;12.808;2022-12-24T06:45:34;9.40;99.90
32839;DHT22;19182;41.820;12.808;2022-12-24T06:48:00;9.40;99.90
32839;DHT22;19182;41.820;12.808;2022-12-24T06:50:26;9.30;99.90
32839;DHT22;19182;41.820;12.808;2022-12-24T06:52:52;9.30;99.90
32839;DHT22;19182;41.820;12.808;2022-12-24T06:55:18;9.30;99.90
32839;DHT22;19182;41.820;12.808;2022-12-24T06:57:44;9.30;99.90
32839;DHT22;19182;41.820;12.808;2022-12-24T07:00:11;9.30;99.90
32839;DHT22;19182;41.820;12.808;2022-12-24T07:02:43;9.40;99.90
32839;DHT22;19182;41.820;12.808;2022-12-24T07:05:11;9.40;99.90
32839;DHT22;19182;41.820;12.808;2022-12-24T07:07:39;9.50;99.90
32839;DHT22;19182;41.820;12.808;2022-12-24T07:10:06;9.40;99.90
32839;DHT22;19182;41.820;12.808;2022-12-24T07:12:32;9.50;99.90
32839;DHT22;19182;41.820;12.808;2022-12-24T07:14:58;9.60;99.90
32839;DHT22;19182;41.820;12.808;2022-12-24T07:17:24;9.50;99.90
32839;DHT22;19182;41.820;12.808;2022-12-24T07:19:51;9.60;99.90
32839;DHT22;19182;41.820;12.808;2022-12-24T07:22:16;9.70;99.90
32839;DHT22;19182;41.820;12.808;2022-12-24T07:24:43;9.80;99.90
32839;DHT22;19182;41.820;12.808;2022-12-24T07:27:09;9.90;99.90
32839;DHT22;19182;41.820;12.808;2022-12-24T07:29:35;10.20;99.90
32839;DHT22;19182;41.820;12.808;2022-12-24T07:32:01;10.30;99.90
32839;DHT22;19182;41.820;12.808;2022-12-24T07:34:27;10.30;99.90
32839;DHT22;19182;41.820;12.808;2022-12-24T07:36:53;10.40;99.90
32839;DHT22;19182;41.820;12.808;2022-12-24T07:39:21;10.50;99.90
32839;DHT22;19182;41.820;12.808;2022-12-24T07:41:50;10.60;99.90
32839;DHT22;19182;41.820;12.808;2022-12-24T07:44:16;10.60;99.90
32839;DHT22;19182;41.820;12.808;2022-12-24T07:46:42;10.80;99.90
32839;DHT22;19182;41.820;12.808;2022-12-24T07:49:09;10.90;99.90
32839;DHT22;19182;41.820;12.808;2022-12-24T07:51:36;11.00;99.90
32839;DHT22;19182;41.820;12.808;2022-12-24T07:54:02;11.20;99.90
32839;DHT22;19182;41.820;12.808;2022-12-24T07:56:30;11.20;99.90
32839;DHT22;19182;41.820;12.808;2022-12-24T07:59:00;11.20;99.90
32839;DHT22;19182;41.820;12.808;2022-12-24T08:01:26;11.30;99.90
32839;DHT22;19182;41.820;12.808;2022-12-24T08:03:53;11.50;99.90
32839;DHT22;19182;41.820;12.808;2022-12-24T08:06:25;11.30;99.90
32839;DHT22;19182;41.820;12.808;2022-12-24T08:08:50;11.20;99.90
32839;DHT22;19182;41.820;12.808;2022-12-24T08:13:44;11.20;99.90
32839;DHT22;19182;41.820;12.808;2022-12-24T08:16:09;11.10;99.90
32839;DHT22;19182;41.820;12.808;2022-12-24T08:18:35;11.00;99.90
32839;DHT22;19182;41.820;12.808;2022-12-24T08:21:01;11.00;99.90
32839;DHT22;19182;41.820;12.808;2022-12-24T08:26:09;11.50;99.90
32839;DHT22;19182;41.820;12.808;2022-12-24T08:28:35;11.50;99.90
32839;DHT22;19182;41.820;12.808;2022-12-24T08:31:01;11.70;99.90
32839;DHT22;19182;41.820;12.808;2022-12-24T08:35:55;11.70;99.90
32839;DHT22;19182;41.820;12.808;2022-12-24T08:43:15;12.30;99.90
32839;DHT22;19182;41.820;12.808;2022-12-24T08:45:41;12.60;99.90
32839;DHT22;19182;41.820;12.808;2022-12-24T08:48:08;13.10;99.90
32839;DHT22;19182;41.820;12.808;2022-12-24T08:53:00;13.30;99.90
32839;DHT22;19182;41.820;12.808;2022-12-24T08:57:52;14.10;99.90
32839;DHT22;19182;41.820;12.808;2022-12-24T09:00:18;14.60;99.90
32839;DHT22;19182;41.820;12.808;2022-12-24T09:02:43;14.80;99.90
32839;DHT22;19182;41.820;12.808;2022-12-24T09:05:09;15.30;99.90
32839;DHT22;19182;41.820;12.808;2022-12-24T09:07:35;14.90;99.90
32839;DHT22;19182;41.820;12.808;2022-12-24T09:10:01;17.00;99.90
32839;DHT22;19182;41.820;12.808;2022-12-24T09:12:27;14.60;99.90
32839;DHT22;19182;41.820;12.808;2022-12-24T09:14:52;14.30;99.90
32839;DHT22;19182;41.820;12.808;2022-12-24T09:22:11;13.70;99.90
32839;DHT22;19182;41.820;12.808;2022-12-24T09:29:30;15.10;99.90
32839;DHT22;19182;41.820;12.808;2022-12-24T09:31:56;15.00;99.90
32839;DHT22;19182;41.820;12.808;2022-12-24T09:34:23;15.40;99.90
32839;DHT22;19182;41.820;12.808;2022-12-24T09:36:49;15.80;99.90
32839;DHT22;19182;41.820;12.808;2022-12-24T09:39:16;15.90;99.90
32839;DHT22;19182;41.820;12.808;2022-12-24T09:47:07;16.20;99.90
32839;DHT22;19182;41.820;12.808;2022-12-24T09:49:39;16.80;99.90
32839;DHT22;19182;41.820;12.808;2022-12-24T09:52:09;16.70;99.90
32839;DHT22;19182;41.820;12.808;2022-12-24T09:54:43;16.50;99.90
32839;DHT22;19182;41.820;12.808;2022-12-24T09:57:26;16.40;99.90
32839;DHT22;19182;41.820;12.808;2022-12-24T10:04:46;17.10;99.90
32839;DHT22;19182;41.820;12.808;2022-12-24T10:07:48;17.10;99.90
32839;DHT22;19182;41.820;12.808;2022-12-24T10:10:35;16.50;99.90
32839;DHT22;19182;41.820;12.808;2022-12-24T10:13:18;16.40;99.90
32839;DHT22;19182;41.820;12.808;2022-12-24T10:16:11;15.70;99.90
32839;DHT22;19182;41.820;12.808;2022-12-24T10:26:22;15.30;99.90
32839;DHT22;19182;41.820;12.808;2022-12-24T10:29:26;15.50;99.90
32839;DHT22;19182;41.820;12.808;2022-12-24T10:39:24;15.70;99.90
32839;DHT22;19182;41.820;12.808;2022-12-24T10:41:54;15.70;99.90
32839;DHT22;19182;41.820;12.808;2022-12-24T10:44:26;15.70;99.90
32839;DHT22;19182;41.820;12.808;2022-12-24T10:49:53;16.00;99.90
32839;DHT22;19182;41.820;12.808;2022-12-24T10:55:11;15.70;99.90
32839;DHT22;19182;41.820;12.808;2022-12-24T10:57:46;15.70;99.90
32839;DHT22;19182;41.820;12.808;2022-12-24T11:00:22;15.80;99.90
32839;DHT22;19182;41.820;12.808;2022-12-24T11:03:05;16.60;99.90
32839;DHT22;19182;41.820;12.808;2022-12-24T11:05:33;16.60;99.90
32839;DHT22;19182;41.820;12.808;2022-12-24T11:08:24;17.60;99.90
32839;DHT22;19182;41.820;12.808;2022-12-24T11:10:58;18.20;99.90
32839;DHT22;19182;41.820;12.808;2022-12-24T11:16:31;19.10;99.90
32839;DHT22;19182;41.820;12.808;2022-12-24T11:19:00;19.30;99.90
32839;DHT22;19182;41.820;12.808;2022-12-24T11:21:46;19.80;99.90
32839;DHT22;19182;41.820;12.808;2022-12-24T11:26:43;19.50;99.90
32839;DHT22;19182;41.820;12.808;2022-12-24T11:31:43;19.30;99.90
32839;DHT22;19182;41.820;12.808;2022-12-24T11:34:31;19.80;99.90
32839;DHT22;19182;41.820;12.808;2022-12-24T11:37:22;21.10;99.90
32839;DHT22;19182;41.820;12.808;2022-12-24T11:39:53;20.10;99.90
32839;DHT22;19182;41.820;12.808;2022-12-24T11:42:35;20.40;99.90
32839;DHT22;19182;41.820;12.808;2022-12-24T11:45:26;21.50;99.90
32839;DHT22;19182;41.820;12.808;2022-12-24T11:47:53;21.50;99.90
32839;DHT22;19182;41.820;12.808;2022-12-24T12:03:46;21.40;99.90
32839;DHT22;19182;41.820;12.808;2022-12-24T12:06:43;20.70;99.90
32839;DHT22;19182;41.820;12.808;2022-12-24T12:09:19;20.70;99.90
32839;DHT22;19182;41.820;12.808;2022-12-24T12:11:49;21.20;99.90
32839;DHT22;19182;41.820;12.808;2022-12-24T12:14:28;22.40;99.90
32839;DHT22;19182;41.820;12.808;2022-12-24T12:19:44;24.60;99.90
32839;DHT22;19182;41.820;12.808;2022-12-24T12:22:39;23.00;99.90
32839;DHT22;19182;41.820;12.808;2022-12-24T12:25:26;22.90;99.90
32839;DHT22;19182;41.820;12.808;2022-12-24T12:27:57;22.80;99.90
32839;DHT22;19182;41.820;12.808;2022-12-24T12:30:32;22.70;99.90
32839;DHT22;19182;41.820;12.808;2022-12-24T12:33:01;21.90;99.90
32839;DHT22;19182;41.820;12.808;2022-12-24T12:35:42;21.60;99.90
32839;DHT22;19182;41.820;12.808;2022-12-24T12:38:21;21.60;99.90
32839;DHT22;19182;41.820;12.808;2022-12-24T12:49:48;22.70;99.90
32839;DHT22;19182;41.820;12.808;2022-12-24T12:57:53;23.40;99.90
32839;DHT22;19182;41.820;12.808;2022-12-24T13:00:22;24.10;99.90
32839;DHT22;19182;41.820;12.808;2022-12-24T13:03:26;24.30;99.90
32839;DHT22;19182;41.820;12.808;2022-12-24T13:20:32;21.70;99.90
32839;DHT22;19182;41.820;12.808;2022-12-24T13:23:24;20.40;99.90
32839;DHT22;19182;41.820;12.808;2022-12-24T13:25:53;20.30;99.90
32839;DHT22;19182;41.820;12.808;2022-12-24T13:30:46;18.60;99.90
32839;DHT22;19182;41.820;12.808;2022-12-24T13:33:44;18.60;99.90
32839;DHT22;19182;41.820;12.808;2022-12-24T13:36:16;18.00;99.90
32839;DHT22;19182;41.820;12.808;2022-12-24T13:54:40;17.30;99.90
32839;DHT22;19182;41.820;12.808;2022-12-24T13:57:36;17.20;99.90
32839;DHT22;19182;41.820;12.808;2022-12-24T14:22:04;16.60;99.90
32839;DHT22;19182;41.820;12.808;2022-12-24T14:24:41;16.60;99.90
32839;DHT22;19182;41.820;12.808;2022-12-24T14:27:31;16.50;99.90
32839;DHT22;19182;41.820;12.808;2022-12-24T14:32:35;16.30;99.90
32839;DHT22;19182;41.820;12.808;2022-12-24T14:46:22;15.70;99.90
32839;DHT22;19182;41.820;12.808;2022-12-24T15:01:34;15.20;99.90
32839;DHT22;19182;41.820;12.808;2022-12-24T15:06:48;15.00;99.90
32839;DHT22;19182;41.820;12.808;2022-12-24T15:11:46;14.90;99.90
32839;DHT22;19182;41.820;12.808;2022-12-24T15:16:39;14.60;99.90
32839;DHT22;19182;41.820;12.808;2022-12-24T15:19:14;14.50;99.90
32839;DHT22;19182;41.820;12.808;2022-12-24T15:24:49;14.20;99.90
32839;DHT22;19182;41.820;12.808;2022-12-24T15:27:18;14.10;99.90
32839;DHT22;19182;41.820;12.808;2022-12-24T15:29:46;14.00;99.90
32839;DHT22;19182;41.820;12.808;2022-12-24T15:32:13;14.10;99.90
32839;DHT22;19182;41.820;12.808;2022-12-24T15:34:40;14.00;99.90
32839;DHT22;19182;41.820;12.808;2022-12-24T15:39:36;13.70;99.90
32839;DHT22;19182;41.820;12.808;2022-12-24T15:42:04;13.70;99.90
32839;DHT22;19182;41.820;12.808;2022-12-24T15:47:27;13.40;99.90
32839;DHT22;19182;41.820;12.808;2022-12-24T15:49:54;13.30;99.90
32839;DHT22;19182;41.820;12.808;2022-12-24T15:52:22;13.20;99.90
32839;DHT22;19182;41.820;12.808;2022-12-24T15:54:52;13.00;99.90
32839;DHT22;19182;41.820;12.808;2022-12-24T15:57:33;12.80;99.90
32839;DHT22;19182;41.820;12.808;2022-12-24T16:00:00;12.80;99.90
32839;DHT22;19182;41.820;12.808;2022-12-24T16:05:27;12.70;99.90
32839;DHT22;19182;41.820;12.808;2022-12-24T16:08:05;12.60;99.90
32839;DHT22;19182;41.820;12.808;2022-12-24T16:13:29;12.40;99.90
32839;DHT22;19182;41.820;12.808;2022-12-24T16:16:06;12.50;99.90
32839;DHT22;19182;41.820;12.808;2022-12-24T16:18:59;12.30;99.90
32839;DHT22;19182;41.820;12.808;2022-12-24T16:21:33;12.20;99.90
32839;DHT22;19182;41.820;12.808;2022-12-24T16:31:36;12.00;99.90
32839;DHT22;19182;41.820;12.808;2022-12-24T16:34:04;12.00;99.90
32839;DHT22;19182;41.820;12.808;2022-12-24T16:36:30;12.00;99.90
32839;DHT22;19182;41.820;12.808;2022-12-24T16:38:57;11.90;99.90
32839;DHT22;19182;41.820;12.808;2022-12-24T16:46:53;11.60;99.90
32839;DHT22;19182;41.820;12.808;2022-12-24T16:49:20;11.50;99.90
32839;DHT22;19182;41.820;12.808;2022-12-24T16:54:13;11.80;99.90
32839;DHT22;19182;41.820;12.808;2022-12-24T16:56:40;11.80;99.90
32839;DHT22;19182;41.820;12.808;2022-12-24T17:06:27;11.50;99.90
32839;DHT22;19182;41.820;12.808;2022-12-24T17:08:53;11.40;99.90
32839;DHT22;19182;41.820;12.808;2022-12-24T17:11:22;11.20;99.90
32839;DHT22;19182;41.820;12.808;2022-12-24T17:21:08;11.20;99.90
32839;DHT22;19182;41.820;12.808;2022-12-24T17:23:35;11.10;99.90
32839;DHT22;19182;41.820;12.808;2022-12-24T17:47:58;11.20;99.90
32839;DHT22;19182;41.820;12.808;2022-12-24T17:50:23;11.00;99.90
32839;DHT22;19182;41.820;12.808;2022-12-24T17:57:42;11.00;99.90
32839;DHT22;19182;41.820;12.808;2022-12-24T18:03:16;11.20;99.90
32839;DHT22;19182;41.820;12.808;2022-12-24T18:05:43;11.00;99.90
32839;DHT22;19182;41.820;12.808;2022-12-24T18:08:10;10.80;99.90
32839;DHT22;19182;41.820;12.808;2022-12-24T18:10:36;10.70;99.90
32839;DHT22;19182;41.820;12.808;2022-12-24T18:13:02;10.70;99.90
32839;DHT22;19182;41.820;12.808;2022-12-24T18:17:58;10.70;99.90
32839;DHT22;19182;41.820;12.808;2022-12-24T18:22:52;10.70;99.90
32839;DHT22;19182;41.820;12.808;2022-12-24T18:25:19;10.80;99.90
32839;DHT22;19182;41.820;12.808;2022-12-24T18:27:45;10.70;99.90
32839;DHT22;19182;41.820;12.808;2022-12-24T18:32:37;10.70;99.90
32839;DHT22;19182;41.820;12.808;2022-12-24T18:44:49;10.60;99.90
32839;DHT22;19182;41.820;12.808;2022-12-24T18:52:08;10.50;99.90
32839;DHT22;19182;41.820;12.808;2022-12-24T18:54:35;10.40;99.90
32839;DHT22;19182;41.820;12.808;2022-12-24T19:04:20;10.60;99.90
32839;DHT22;19182;41.820;12.808;2022-12-24T19:06:46;10.60;99.90
32839;DHT22;19182;41.820;12.808;2022-12-24T19:14:11;10.30;99.90
32839;DHT22;19182;41.820;12.808;2022-12-24T19:16:38;10.50;99.90
32839;DHT22;19182;41.820;12.808;2022-12-24T19:19:06;10.40;99.90
32839;DHT22;19182;41.820;12.808;2022-12-24T19:21:32;10.40;99.90
32839;DHT22;19182;41.820;12.808;2022-12-24T19:23:58;10.20;99.90
32839;DHT22;19182;41.820;12.808;2022-12-24T19:31:20;10.30;99.90
32839;DHT22;19182;41.820;12.808;2022-12-24T19:33:48;10.20;99.90
32839;DHT22;19182;41.820;12.808;2022-12-24T19:36:17;10.30;99.90
32839;DHT22;19182;41.820;12.808;2022-12-24T19:41:16;9.90;99.90
32839;DHT22;19182;41.820;12.808;2022-12-24T19:43:48;9.80;99.90
32839;DHT22;19182;41.820;12.808;2022-12-24T19:46:16;9.60;99.90
32839;DHT22;19182;41.820;12.808;2022-12-24T19:51:16;9.60;99.90
32839;DHT22;19182;41.820;12.808;2022-12-24T19:53:55;9.40;99.90
32839;DHT22;19182;41.820;12.808;2022-12-24T19:56:23;9.40;99.90
32839;DHT22;19182;41.820;12.808;2022-12-24T19:58:49;9.30;99.90
32839;DHT22;19182;41.820;12.808;2022-12-24T20:03:45;9.80;99.90
32839;DHT22;19182;41.820;12.808;2022-12-24T20:06:12;9.70;99.90
32839;DHT22;19182;41.820;12.808;2022-12-24T20:08:38;9.80;99.90
32839;DHT22;19182;41.820;12.808;2022-12-24T20:11:05;9.70;99.90
32839;DHT22;19182;41.820;12.808;2022-12-24T20:13:36;9.60;99.90
32839;DHT22;19182;41.820;12.808;2022-12-24T20:16:10;9.70;99.90
32839;DHT22;19182;41.820;12.808;2022-12-24T20:21:26;9.60;99.90
32839;DHT22;19182;41.820;12.808;2022-12-24T20:23:52;9.70;99.90
32839;DHT22;19182;41.820;12.808;2022-12-24T20:26:22;9.70;99.90
32839;DHT22;19182;41.820;12.808;2022-12-24T20:28:51;9.80;99.90
32839;DHT22;19182;41.820;12.808;2022-12-24T20:31:25;9.80;99.90
32839;DHT22;19182;41.820;12.808;2022-12-24T20:33:55;9.70;99.90
32839;DHT22;19182;41.820;12.808;2022-12-24T20:36:21;9.80;99.90
32839;DHT22;19182;41.820;12.808;2022-12-24T20:38:47;9.60;99.90
32839;DHT22;19182;41.820;12.808;2022-12-24T20:41:15;9.60;99.90
32839;DHT22;19182;41.820;12.808;2022-12-24T20:43:42;9.50;99.90
32839;DHT22;19182;41.820;12.808;2022-12-24T20:46:08;9.40;99.90
32839;DHT22;19182;41.820;12.808;2022-12-24T20:48:35;9.40;99.90
32839;DHT22;19182;41.820;12.808;2022-12-24T20:51:09;9.40;99.90
32839;DHT22;19182;41.820;12.808;2022-12-24T20:53:37;9.60;99.90
32839;DHT22;19182;41.820;12.808;2022-12-24T20:56:03;10.10;99.90
32839;DHT22;19182;41.820;12.808;2022-12-24T20:58:29;10.40;99.90
32839;DHT22;19182;41.820;12.808;2022-12-24T21:00:55;10.70;99.90
32839;DHT22;19182;41.820;12.808;2022-12-24T21:03:21;10.90;99.90
32839;DHT22;19182;41.820;12.808;2022-12-24T21:05:47;10.90;99.90
32839;DHT22;19182;41.820;12.808;2022-12-24T21:08:13;10.90;99.90
32839;DHT22;19182;41.820;12.808;2022-12-24T21:10:39;10.80;99.90
32839;DHT22;19182;41.820;12.808;2022-12-24T21:13:06;10.90;99.90
32839;DHT22;19182;41.820;12.808;2022-12-24T21:15:35;10.80;99.90